sensor_id;sensor_type;location;lat;lon;timestamp;pressure;altitude;pressure_sealevel;temperature
15453;BMP280;7827;53.594;9.938;2022-07-06T00:00:35;152350.53;;;16.03
15453;BMP280;7827;53.594;9.938;2022-07-06T00:03:04;152332.91;;;15.96
15453;BMP280;7827;53.594;9.938;2022-07-06T00:05:32;152332.91;;;15.96
15453;BMP280;7827;53.594;9.938;2022-07-06T00:08:00;152331.66;;;15.96
15453;BMP280;7827;53.594;9.938;2022-07-06T00:10:29;152345.53;;;16.01
15453;BMP280;7827;53.594;9.938;2022-07-06T00:12:57;152331.66;;;15.96
15453;BMP280;7827;53.594;9.938;2022-07-06T00:15:27;152320.34;;;15.91
15453;BMP280;7827;53.594;9.938;2022-07-06T00:17:55;152314.03;;;15.89
15453;BMP280;7827;53.594;9.938;2022-07-06T00:20:23;152319.06;;;15.91
15453;BMP280;7827;53.594;9.938;2022-07-06T00:22:52;152322.84;;;15.92
15453;BMP280;7827;53.594;9.938;2022-07-06T00:25:20;152326.66;;;15.94
15453;BMP280;7827;53.594;9.938;2022-07-06T00:27:48;152336.69;;;15.98
15453;BMP280;7827;53.594;9.938;2022-07-06T00:30:17;152330.44;;;15.95
15453;BMP280;7827;53.594;9.938;2022-07-06T00:32:46;152330.44;;;15.95
15453;BMP280;7827;53.594;9.938;2022-07-06T00:35:15;152330.44;;;15.95
15453;BMP280;7827;53.594;9.938;2022-07-06T00:37:43;152332.91;;;15.96
15453;BMP280;7827;53.594;9.938;2022-07-06T00:40:12;152332.91;;;15.96
15453;BMP280;7827;53.594;9.938;2022-07-06T00:42:42;152337.97;;;15.98
15453;BMP280;7827;53.594;9.938;2022-07-06T00:45:12;152331.66;;;15.96
15453;BMP280;7827;53.594;9.938;2022-07-06T00:47:41;152329.13;;;15.95
15453;BMP280;7827;53.594;9.938;2022-07-06T00:50:14;152331.66;;;15.96
15453;BMP280;7827;53.594;9.938;2022-07-06T00:52:47;152324.13;;;15.93
15453;BMP280;7827;53.594;9.938;2022-07-06T00:55:18;152311.50;;;15.88
15453;BMP280;7827;53.594;9.938;2022-07-06T00:57:48;152309.03;;;15.87
15453;BMP280;7827;53.594;9.938;2022-07-06T01:00:20;152315.28;;;15.89
15453;BMP280;7827;53.594;9.938;2022-07-06T01:02:50;152311.50;;;15.88
15453;BMP280;7827;53.594;9.938;2022-07-06T01:05:21;152312.81;;;15.88
15453;BMP280;7827;53.594;9.938;2022-07-06T01:07:52;152317.81;;;15.90
15453;BMP280;7827;53.594;9.938;2022-07-06T01:10:21;152320.34;;;15.91
15453;BMP280;7827;53.594;9.938;2022-07-06T01:12:50;152329.13;;;15.95
15453;BMP280;7827;53.594;9.938;2022-07-06T01:15:22;152325.38;;;15.93
15453;BMP280;7827;53.594;9.938;2022-07-06T01:17:52;152314.03;;;15.89
15453;BMP280;7827;53.594;9.938;2022-07-06T01:20:29;152315.28;;;15.89
15453;BMP280;7827;53.594;9.938;2022-07-06T01:22:59;152297.72;;;15.82
15453;BMP280;7827;53.594;9.938;2022-07-06T01:25:28;152292.66;;;15.80
15453;BMP280;7827;53.594;9.938;2022-07-06T01:27:56;152270.03;;;15.71
15453;BMP280;7827;53.594;9.938;2022-07-06T01:30:25;152260.00;;;15.67
15453;BMP280;7827;53.594;9.938;2022-07-06T01:32:53;152265.00;;;15.69
15453;BMP280;7827;53.594;9.938;2022-07-06T01:35:24;152244.91;;;15.61
15453;BMP280;7827;53.594;9.938;2022-07-06T01:37:53;152218.47;;;15.51
15453;BMP280;7827;53.594;9.938;2022-07-06T01:40:22;152236.09;;;15.58
15453;BMP280;7827;53.594;9.938;2022-07-06T01:42:50;152249.94;;;15.63
15453;BMP280;7827;53.594;9.938;2022-07-06T01:45:19;152270.03;;;15.71
15453;BMP280;7827;53.594;9.938;2022-07-06T01:47:47;152260.00;;;15.67
15453;BMP280;7827;53.594;9.938;2022-07-06T01:50:17;152252.44;;;15.64
15453;BMP280;7827;53.594;9.938;2022-07-06T01:52:46;152237.38;;;15.59
15453;BMP280;7827;53.594;9.938;2022-07-06T01:55:16;152242.38;;;15.60
15453;BMP280;7827;53.594;9.938;2022-07-06T01:57:44;152247.41;;;15.62
15453;BMP280;7827;53.594;9.938;2022-07-06T02:00:14;152248.69;;;15.63
15453;BMP280;7827;53.594;9.938;2022-07-06T02:02:47;152241.13;;;15.60
15453;BMP280;7827;53.594;9.938;2022-07-06T02:05:15;152237.38;;;15.59
15453;BMP280;7827;53.594;9.938;2022-07-06T02:07:44;152241.13;;;15.60
15453;BMP280;7827;53.594;9.938;2022-07-06T02:10:13;152232.31;;;15.57
15453;BMP280;7827;53.594;9.938;2022-07-06T02:12:44;152223.53;;;15.53
15453;BMP280;7827;53.594;9.938;2022-07-06T02:15:13;152229.78;;;15.56
15453;BMP280;7827;53.594;9.938;2022-07-06T02:17:41;152244.91;;;15.61
15453;BMP280;7827;53.594;9.938;2022-07-06T02:20:10;152249.94;;;15.63
15453;BMP280;7827;53.594;9.938;2022-07-06T02:22:39;152247.41;;;15.62
15453;BMP280;7827;53.594;9.938;2022-07-06T02:25:08;152242.38;;;15.60
15453;BMP280;7827;53.594;9.938;2022-07-06T02:27:38;152241.13;;;15.60
15453;BMP280;7827;53.594;9.938;2022-07-06T02:30:10;152242.38;;;15.60
15453;BMP280;7827;53.594;9.938;2022-07-06T02:32:39;152249.94;;;15.63
15453;BMP280;7827;53.594;9.938;2022-07-06T02:35:08;152244.91;;;15.61
15453;BMP280;7827;53.594;9.938;2022-07-06T02:37:37;152237.38;;;15.59
15453;BMP280;7827;53.594;9.938;2022-07-06T02:40:07;152242.38;;;15.60
15453;BMP280;7827;53.594;9.938;2022-07-06T02:42:37;152252.44;;;15.64
15453;BMP280;7827;53.594;9.938;2022-07-06T02:45:10;152268.78;;;15.71
15453;BMP280;7827;53.594;9.938;2022-07-06T02:47:38;152273.78;;;15.73
15453;BMP280;7827;53.594;9.938;2022-07-06T02:50:08;152267.53;;;15.70
15453;BMP280;7827;53.594;9.938;2022-07-06T02:52:36;152267.53;;;15.70
15453;BMP280;7827;53.594;9.938;2022-07-06T02:55:09;152277.56;;;15.74
15453;BMP280;7827;53.594;9.938;2022-07-06T02:57:37;152271.31;;;15.72
15453;BMP280;7827;53.594;9.938;2022-07-06T03:00:08;152265.00;;;15.69
15453;BMP280;7827;53.594;9.938;2022-07-06T03:02:39;152278.84;;;15.75
15453;BMP280;7827;53.594;9.938;2022-07-06T03:05:09;152260.00;;;15.67
15453;BMP280;7827;53.594;9.938;2022-07-06T03:07:38;152241.13;;;15.60
15453;BMP280;7827;53.594;9.938;2022-07-06T03:10:07;152257.47;;;15.66
15453;BMP280;7827;53.594;9.938;2022-07-06T03:12:36;152275.09;;;15.73
15453;BMP280;7827;53.594;9.938;2022-07-06T03:15:06;152297.72;;;15.82
15453;BMP280;7827;53.594;9.938;2022-07-06T03:17:39;152310.28;;;15.87
15453;BMP280;7827;53.594;9.938;2022-07-06T03:20:09;152320.34;;;15.91
15453;BMP280;7827;53.594;9.938;2022-07-06T03:22:39;152326.66;;;15.94
15453;BMP280;7827;53.594;9.938;2022-07-06T03:25:09;152332.91;;;15.96
15453;BMP280;7827;53.594;9.938;2022-07-06T03:27:39;152340.44;;;15.99
15453;BMP280;7827;53.594;9.938;2022-07-06T03:30:09;152336.69;;;15.98
15453;BMP280;7827;53.594;9.938;2022-07-06T03:32:44;152310.28;;;15.87
15453;BMP280;7827;53.594;9.938;2022-07-06T03:35:14;152310.28;;;15.87
15453;BMP280;7827;53.594;9.938;2022-07-06T03:37:43;152306.50;;;15.86
15453;BMP280;7827;53.594;9.938;2022-07-06T03:40:13;152316.59;;;15.90
15453;BMP280;7827;53.594;9.938;2022-07-06T03:42:43;152302.72;;;15.84
15453;BMP280;7827;53.594;9.938;2022-07-06T03:45:11;152282.63;;;15.76
15453;BMP280;7827;53.594;9.938;2022-07-06T03:47:41;152286.41;;;15.78
15453;BMP280;7827;53.594;9.938;2022-07-06T03:50:11;152272.56;;;15.72
15453;BMP280;7827;53.594;9.938;2022-07-06T03:52:39;152285.09;;;15.77
15453;BMP280;7827;53.594;9.938;2022-07-06T03:55:10;152301.50;;;15.84
15453;BMP280;7827;53.594;9.938;2022-07-06T03:57:42;152277.56;;;15.74
15453;BMP280;7827;53.594;9.938;2022-07-06T04:00:15;152288.88;;;15.79
15453;BMP280;7827;53.594;9.938;2022-07-06T04:02:50;152295.19;;;15.81
15453;BMP280;7827;53.594;9.938;2022-07-06T04:05:24;152273.78;;;15.73
15453;BMP280;7827;53.594;9.938;2022-07-06T04:07:53;152253.69;;;15.65
15453;BMP280;7827;53.594;9.938;2022-07-06T04:10:27;152239.84;;;15.59
15453;BMP280;7827;53.594;9.938;2022-07-06T04:12:57;152238.59;;;15.59
15453;BMP280;7827;53.594;9.938;2022-07-06T04:15:25;152243.63;;;15.61
15453;BMP280;7827;53.594;9.938;2022-07-06T04:17:53;152249.94;;;15.63
15453;BMP280;7827;53.594;9.938;2022-07-06T04:20:47;152257.47;;;15.66
15453;BMP280;7827;53.594;9.938;2022-07-06T04:23:16;152271.31;;;15.72
15453;BMP280;7827;53.594;9.938;2022-07-06T04:25:44;152268.78;;;15.71
15453;BMP280;7827;53.594;9.938;2022-07-06T04:28:13;152267.53;;;15.70
15453;BMP280;7827;53.594;9.938;2022-07-06T04:30:42;152272.56;;;15.72
15453;BMP280;7827;53.594;9.938;2022-07-06T04:33:14;152300.19;;;15.83
15453;BMP280;7827;53.594;9.938;2022-07-06T04:35:44;152303.97;;;15.85
15453;BMP280;7827;53.594;9.938;2022-07-06T04:38:14;152322.84;;;15.92
15453;BMP280;7827;53.594;9.938;2022-07-06T04:40:44;152353.06;;;16.04
15453;BMP280;7827;53.594;9.938;2022-07-06T04:43:15;152350.53;;;16.03
15453;BMP280;7827;53.594;9.938;2022-07-06T04:45:44;152369.41;;;16.10
15453;BMP280;7827;53.594;9.938;2022-07-06T04:48:12;152385.72;;;16.17
15453;BMP280;7827;53.594;9.938;2022-07-06T04:50:41;152379.47;;;16.14
15453;BMP280;7827;53.594;9.938;2022-07-06T04:53:16;152368.16;;;16.10
15453;BMP280;7827;53.594;9.938;2022-07-06T04:55:44;152358.06;;;16.06
15453;BMP280;7827;53.594;9.938;2022-07-06T04:58:12;152368.16;;;16.10
15453;BMP280;7827;53.594;9.938;2022-07-06T05:00:41;152370.63;;;16.11
15453;BMP280;7827;53.594;9.938;2022-07-06T05:03:09;152345.53;;;16.01
15453;BMP280;7827;53.594;9.938;2022-07-06T05:05:38;152343.00;;;16.00
15453;BMP280;7827;53.594;9.938;2022-07-06T05:08:06;152351.78;;;16.04
15453;BMP280;7827;53.594;9.938;2022-07-06T05:10:36;152369.41;;;16.10
15453;BMP280;7827;53.594;9.938;2022-07-06T05:13:04;152373.16;;;16.12
15453;BMP280;7827;53.594;9.938;2022-07-06T05:15:33;152366.84;;;16.09
15453;BMP280;7827;53.594;9.938;2022-07-06T05:18:01;152374.41;;;16.12
15453;BMP280;7827;53.594;9.938;2022-07-06T05:20:30;152388.25;;;16.18
15453;BMP280;7827;53.594;9.938;2022-07-06T05:23:00;152393.28;;;16.20
15453;BMP280;7827;53.594;9.938;2022-07-06T05:25:31;152381.94;;;16.15
15453;BMP280;7827;53.594;9.938;2022-07-06T05:28:02;152393.28;;;16.20
15453;BMP280;7827;53.594;9.938;2022-07-06T05:30:31;152405.94;;;16.25
15453;BMP280;7827;53.594;9.938;2022-07-06T05:32:59;152412.19;;;16.27
15453;BMP280;7827;53.594;9.938;2022-07-06T05:35:29;152415.97;;;16.29
15453;BMP280;7827;53.594;9.938;2022-07-06T05:38:19;152405.94;;;16.25
15453;BMP280;7827;53.594;9.938;2022-07-06T05:40:49;152412.19;;;16.27
15453;BMP280;7827;53.594;9.938;2022-07-06T05:43:18;152398.34;;;16.22
15453;BMP280;7827;53.594;9.938;2022-07-06T05:45:47;152365.63;;;16.09
15453;BMP280;7827;53.594;9.938;2022-07-06T05:48:17;152390.78;;;16.19
15453;BMP280;7827;53.594;9.938;2022-07-06T05:51:05;152393.28;;;16.20
15453;BMP280;7827;53.594;9.938;2022-07-06T05:53:33;152410.94;;;16.27
15453;BMP280;7827;53.594;9.938;2022-07-06T05:56:01;152421.03;;;16.31
15453;BMP280;7827;53.594;9.938;2022-07-06T05:58:32;152441.13;;;16.39
15453;BMP280;7827;53.594;9.938;2022-07-06T06:01:01;152458.75;;;16.46
15453;BMP280;7827;53.594;9.938;2022-07-06T06:03:30;152455.00;;;16.44
15453;BMP280;7827;53.594;9.938;2022-07-06T06:06:01;152437.34;;;16.37
15453;BMP280;7827;53.594;9.938;2022-07-06T06:08:30;152408.41;;;16.26
15453;BMP280;7827;53.594;9.938;2022-07-06T06:11:00;152403.41;;;16.24
15453;BMP280;7827;53.594;9.938;2022-07-06T06:13:36;152384.50;;;16.16
15453;BMP280;7827;53.594;9.938;2022-07-06T06:16:05;152348.00;;;16.02
15453;BMP280;7827;53.594;9.938;2022-07-06T06:18:34;152348.00;;;16.02
15453;BMP280;7827;53.594;9.938;2022-07-06T06:21:09;152344.22;;;16.01
15453;BMP280;7827;53.594;9.938;2022-07-06T06:23:37;152349.28;;;16.03
15453;BMP280;7827;53.594;9.938;2022-07-06T06:26:05;152371.94;;;16.11
15453;BMP280;7827;53.594;9.938;2022-07-06T06:28:35;152394.56;;;16.20
15453;BMP280;7827;53.594;9.938;2022-07-06T06:31:04;152405.94;;;16.25
15453;BMP280;7827;53.594;9.938;2022-07-06T06:33:32;152404.63;;;16.24
15453;BMP280;7827;53.594;9.938;2022-07-06T06:36:01;152444.91;;;16.40
15453;BMP280;7827;53.594;9.938;2022-07-06T06:38:29;152448.69;;;16.42
15453;BMP280;7827;53.594;9.938;2022-07-06T06:40:57;152447.44;;;16.41
15453;BMP280;7827;53.594;9.938;2022-07-06T06:43:26;152442.44;;;16.39
15453;BMP280;7827;53.594;9.938;2022-07-06T06:46:01;152462.53;;;16.47
15453;BMP280;7827;53.594;9.938;2022-07-06T06:48:29;152456.22;;;16.45
15453;BMP280;7827;53.594;9.938;2022-07-06T06:50:58;152461.28;;;16.47
15453;BMP280;7827;53.594;9.938;2022-07-06T06:53:27;152467.53;;;16.49
15453;BMP280;7827;53.594;9.938;2022-07-06T06:55:55;152495.25;;;16.60
15453;BMP280;7827;53.594;9.938;2022-07-06T06:58:23;152473.84;;;16.52
15453;BMP280;7827;53.594;9.938;2022-07-06T07:00:53;152504.03;;;16.63
15453;BMP280;7827;53.594;9.938;2022-07-06T07:03:23;152486.41;;;16.57
15453;BMP280;7827;53.594;9.938;2022-07-06T07:05:51;152499.03;;;16.61
15453;BMP280;7827;53.594;9.938;2022-07-06T07:08:19;152526.69;;;16.72
15453;BMP280;7827;53.594;9.938;2022-07-06T07:10:48;152558.19;;;16.85
15453;BMP280;7827;53.594;9.938;2022-07-06T07:13:16;152578.28;;;16.93
15453;BMP280;7827;53.594;9.938;2022-07-06T07:15:45;152598.41;;;17.01
15453;BMP280;7827;53.594;9.938;2022-07-06T07:18:13;152589.63;;;16.97
15453;BMP280;7827;53.594;9.938;2022-07-06T07:20:43;152589.63;;;16.97
15453;BMP280;7827;53.594;9.938;2022-07-06T07:23:12;152551.88;;;16.82
15453;BMP280;7827;53.594;9.938;2022-07-06T07:25:40;152559.41;;;16.85
15453;BMP280;7827;53.594;9.938;2022-07-06T07:28:09;152556.88;;;16.84
15453;BMP280;7827;53.594;9.938;2022-07-06T07:30:37;152536.78;;;16.76
15453;BMP280;7827;53.594;9.938;2022-07-06T07:33:05;152521.69;;;16.70
15453;BMP280;7827;53.594;9.938;2022-07-06T07:35:34;152495.25;;;16.60
15453;BMP280;7827;53.594;9.938;2022-07-06T07:38:03;152491.47;;;16.58
15453;BMP280;7827;53.594;9.938;2022-07-06T07:40:32;152485.19;;;16.56
15453;BMP280;7827;53.594;9.938;2022-07-06T07:43:00;152463.78;;;16.48
15453;BMP280;7827;53.594;9.938;2022-07-06T07:45:28;152463.78;;;16.48
15453;BMP280;7827;53.594;9.938;2022-07-06T07:47:57;152478.88;;;16.54
15453;BMP280;7827;53.594;9.938;2022-07-06T07:50:25;152487.72;;;16.57
15453;BMP280;7827;53.594;9.938;2022-07-06T07:52:56;152511.59;;;16.66
15453;BMP280;7827;53.594;9.938;2022-07-06T07:55:26;152535.53;;;16.76
15453;BMP280;7827;53.594;9.938;2022-07-06T07:58:09;152488.94;;;16.58
15453;BMP280;7827;53.594;9.938;2022-07-06T08:00:38;152506.59;;;16.64
15453;BMP280;7827;53.594;9.938;2022-07-06T08:03:06;152539.31;;;16.77
15453;BMP280;7827;53.594;9.938;2022-07-06T08:05:34;152579.53;;;16.93
15453;BMP280;7827;53.594;9.938;2022-07-06T08:08:03;152624.88;;;17.11
15453;BMP280;7827;53.594;9.938;2022-07-06T08:10:33;152708.00;;;17.44
15453;BMP280;7827;53.594;9.938;2022-07-06T08:13:18;152731.91;;;17.53
15453;BMP280;7827;53.594;9.938;2022-07-06T08:15:46;152720.56;;;17.49
15453;BMP280;7827;53.594;9.938;2022-07-06T08:18:15;152726.88;;;17.51
15453;BMP280;7827;53.594;9.938;2022-07-06T08:20:43;152682.81;;;17.34
15453;BMP280;7827;53.594;9.938;2022-07-06T08:23:31;152645.00;;;17.19
15453;BMP280;7827;53.594;9.938;2022-07-06T08:26:03;152624.88;;;17.11
15453;BMP280;7827;53.594;9.938;2022-07-06T08:28:31;152574.53;;;16.91
15453;BMP280;7827;53.594;9.938;2022-07-06T08:31:00;152543.06;;;16.79
15453;BMP280;7827;53.594;9.938;2022-07-06T08:33:28;152531.75;;;16.74
15453;BMP280;7827;53.594;9.938;2022-07-06T08:35:57;152506.59;;;16.64
15453;BMP280;7827;53.594;9.938;2022-07-06T08:38:26;152526.69;;;16.72
15453;BMP280;7827;53.594;9.938;2022-07-06T08:40:55;152541.78;;;16.78
15453;BMP280;7827;53.594;9.938;2022-07-06T08:43:26;152565.72;;;16.88
15453;BMP280;7827;53.594;9.938;2022-07-06T08:45:54;152590.84;;;16.98
15453;BMP280;7827;53.594;9.938;2022-07-06T08:48:24;152595.94;;;17.00
15453;BMP280;7827;53.594;9.938;2022-07-06T08:50:54;152618.59;;;17.08
15453;BMP280;7827;53.594;9.938;2022-07-06T08:53:24;152650.06;;;17.21
15453;BMP280;7827;53.594;9.938;2022-07-06T08:55:54;152668.97;;;17.28
15453;BMP280;7827;53.594;9.938;2022-07-06T08:58:26;152691.59;;;17.37
15453;BMP280;7827;53.594;9.938;2022-07-06T09:00:55;152715.56;;;17.47
15453;BMP280;7827;53.594;9.938;2022-07-06T09:03:25;152726.88;;;17.51
15453;BMP280;7827;53.594;9.938;2022-07-06T09:06:01;152715.56;;;17.47
15453;BMP280;7827;53.594;9.938;2022-07-06T09:08:31;152725.66;;;17.51
15453;BMP280;7827;53.594;9.938;2022-07-06T09:11:00;152705.47;;;17.43
15453;BMP280;7827;53.594;9.938;2022-07-06T09:13:30;152679.03;;;17.32
15453;BMP280;7827;53.594;9.938;2022-07-06T09:16:09;152699.22;;;17.40
15453;BMP280;7827;53.594;9.938;2022-07-06T09:19:01;152687.84;;;17.36
15453;BMP280;7827;53.594;9.938;2022-07-06T09:21:32;152690.38;;;17.37
15453;BMP280;7827;53.594;9.938;2022-07-06T09:24:08;152697.91;;;17.40
15453;BMP280;7827;53.594;9.938;2022-07-06T09:26:38;152726.88;;;17.51
15453;BMP280;7827;53.594;9.938;2022-07-06T09:29:10;152726.88;;;17.51
15453;BMP280;7827;53.594;9.938;2022-07-06T09:31:39;152764.66;;;17.66
15453;BMP280;7827;53.594;9.938;2022-07-06T09:34:08;152813.75;;;17.85
15453;BMP280;7827;53.594;9.938;2022-07-06T09:36:41;152885.63;;;18.13
15453;BMP280;7827;53.594;9.938;2022-07-06T09:39:19;152912.06;;;18.24
15453;BMP280;7827;53.594;9.938;2022-07-06T09:41:50;152956.13;;;18.41
15453;BMP280;7827;53.594;9.938;2022-07-06T09:44:22;152966.22;;;18.45
15453;BMP280;7827;53.594;9.938;2022-07-06T09:46:52;152949.88;;;18.39
15453;BMP280;7827;53.594;9.938;2022-07-06T09:49:22;152977.56;;;18.50
15453;BMP280;7827;53.594;9.938;2022-07-06T09:51:52;152971.28;;;18.47
15453;BMP280;7827;53.594;9.938;2022-07-06T09:54:21;153011.56;;;18.63
15453;BMP280;7827;53.594;9.938;2022-07-06T09:56:52;153063.25;;;18.83
15453;BMP280;7827;53.594;9.938;2022-07-06T09:59:24;153131.31;;;19.10
15453;BMP280;7827;53.594;9.938;2022-07-06T10:01:54;153136.41;;;19.12
15453;BMP280;7827;53.594;9.938;2022-07-06T10:04:25;153170.44;;;19.25
15453;BMP280;7827;53.594;9.938;2022-07-06T10:06:55;153194.34;;;19.35
15453;BMP280;7827;53.594;9.938;2022-07-06T10:09:25;153151.53;;;19.18
15453;BMP280;7827;53.594;9.938;2022-07-06T10:11:59;153040.56;;;18.74
15453;BMP280;7827;53.594;9.938;2022-07-06T10:14:32;152878.03;;;18.10
15453;BMP280;7827;53.594;9.938;2022-07-06T10:17:03;152801.19;;;17.80
15453;BMP280;7827;53.594;9.938;2022-07-06T10:19:33;152660.16;;;17.25
15453;BMP280;7827;53.594;9.938;2022-07-06T10:22:03;152604.72;;;17.03
15453;BMP280;7827;53.594;9.938;2022-07-06T10:24:32;152551.88;;;16.82
15453;BMP280;7827;53.594;9.938;2022-07-06T10:27:02;152496.50;;;16.60
15453;BMP280;7827;53.594;9.938;2022-07-06T10:29:33;152480.16;;;16.54
15453;BMP280;7827;53.594;9.938;2022-07-06T10:32:02;152490.19;;;16.58
15453;BMP280;7827;53.594;9.938;2022-07-06T10:34:31;152493.97;;;16.59
15453;BMP280;7827;53.594;9.938;2022-07-06T10:36:59;152502.81;;;16.63
15453;BMP280;7827;53.594;9.938;2022-07-06T10:39:34;152506.59;;;16.64
15453;BMP280;7827;53.594;9.938;2022-07-06T10:42:40;152488.94;;;16.58
15453;BMP280;7827;53.594;9.938;2022-07-06T10:45:13;152488.94;;;16.58
15453;BMP280;7827;53.594;9.938;2022-07-06T10:47:42;152491.47;;;16.58
15453;BMP280;7827;53.594;9.938;2022-07-06T10:50:11;152506.59;;;16.64
15453;BMP280;7827;53.594;9.938;2022-07-06T10:52:57;152528.00;;;16.73
15453;BMP280;7827;53.594;9.938;2022-07-06T10:55:31;152566.97;;;16.88
15453;BMP280;7827;53.594;9.938;2022-07-06T10:58:00;152607.25;;;17.04
15453;BMP280;7827;53.594;9.938;2022-07-06T11:00:50;152636.22;;;17.15
15453;BMP280;7827;53.594;9.938;2022-07-06T11:03:40;152671.47;;;17.29
15453;BMP280;7827;53.594;9.938;2022-07-06T11:06:15;152708.00;;;17.44
15453;BMP280;7827;53.594;9.938;2022-07-06T11:08:51;152753.31;;;17.61
15453;BMP280;7827;53.594;9.938;2022-07-06T11:11:23;152775.97;;;17.70
15453;BMP280;7827;53.594;9.938;2022-07-06T11:14:04;152816.28;;;17.86
15453;BMP280;7827;53.594;9.938;2022-07-06T11:16:36;152854.06;;;18.01
15453;BMP280;7827;53.594;9.938;2022-07-06T11:19:11;152901.97;;;18.20
15453;BMP280;7827;53.594;9.938;2022-07-06T11:21:45;152925.91;;;18.29
15453;BMP280;7827;53.594;9.938;2022-07-06T11:24:15;152990.19;;;18.55
15453;BMP280;7827;53.594;9.938;2022-07-06T11:26:46;153040.56;;;18.74
15453;BMP280;7827;53.594;9.938;2022-07-06T11:29:16;153030.47;;;18.70
15453;BMP280;7827;53.594;9.938;2022-07-06T11:31:48;152952.34;;;18.40
15453;BMP280;7827;53.594;9.938;2022-07-06T11:34:20;152909.53;;;18.23
15453;BMP280;7827;53.594;9.938;2022-07-06T11:36:49;152862.88;;;18.04
15453;BMP280;7827;53.594;9.938;2022-07-06T11:39:22;152861.63;;;18.04
15453;BMP280;7827;53.594;9.938;2022-07-06T11:41:50;152852.81;;;18.01
15453;BMP280;7827;53.594;9.938;2022-07-06T11:44:18;152833.94;;;17.93
15453;BMP280;7827;53.594;9.938;2022-07-06T11:46:49;152856.59;;;18.02
15453;BMP280;7827;53.594;9.938;2022-07-06T11:49:18;152922.13;;;18.28
15453;BMP280;7827;53.594;9.938;2022-07-06T11:51:47;152990.19;;;18.55
15453;BMP280;7827;53.594;9.938;2022-07-06T11:54:18;153070.78;;;18.86
15453;BMP280;7827;53.594;9.938;2022-07-06T11:56:49;153166.66;;;19.24
15453;BMP280;7827;53.594;9.938;2022-07-06T11:59:22;153212.03;;;19.42
15453;BMP280;7827;53.594;9.938;2022-07-06T12:01:58;153264.97;;;19.62
15453;BMP280;7827;53.594;9.938;2022-07-06T12:04:28;153312.88;;;19.81
15453;BMP280;7827;53.594;9.938;2022-07-06T12:07:01;153349.50;;;19.96
15453;BMP280;7827;53.594;9.938;2022-07-06T12:09:30;153408.78;;;20.19
15453;BMP280;7827;53.594;9.938;2022-07-06T12:11:59;153370.97;;;20.04
15453;BMP280;7827;53.594;9.938;2022-07-06T12:14:32;153343.19;;;19.93
15453;BMP280;7827;53.594;9.938;2022-07-06T12:17:06;153305.31;;;19.78
15453;BMP280;7827;53.594;9.938;2022-07-06T12:19:36;153297.75;;;19.75
15453;BMP280;7827;53.594;9.938;2022-07-06T12:22:05;153368.44;;;20.03
15453;BMP280;7827;53.594;9.938;2022-07-06T12:24:36;153410.03;;;20.19
15453;BMP280;7827;53.594;9.938;2022-07-06T12:27:14;153370.97;;;20.04
15453;BMP280;7827;53.594;9.938;2022-07-06T12:29:43;153353.28;;;19.97
15453;BMP280;7827;53.594;9.938;2022-07-06T12:32:18;153286.41;;;19.71
15453;BMP280;7827;53.594;9.938;2022-07-06T12:34:46;153242.28;;;19.53
15453;BMP280;7827;53.594;9.938;2022-07-06T12:37:15;153191.88;;;19.34
15453;BMP280;7827;53.594;9.938;2022-07-06T12:39:46;153172.97;;;19.26
15453;BMP280;7827;53.594;9.938;2022-07-06T12:42:16;153218.34;;;19.44
15453;BMP280;7827;53.594;9.938;2022-07-06T12:44:50;153297.75;;;19.75
15453;BMP280;7827;53.594;9.938;2022-07-06T12:47:22;153311.63;;;19.81
15453;BMP280;7827;53.594;9.938;2022-07-06T12:50:06;153272.53;;;19.65
15453;BMP280;7827;53.594;9.938;2022-07-06T12:52:34;153229.69;;;19.49
15453;BMP280;7827;53.594;9.938;2022-07-06T12:55:05;153198.16;;;19.36
15453;BMP280;7827;53.594;9.938;2022-07-06T12:57:47;153175.47;;;19.27
15453;BMP280;7827;53.594;9.938;2022-07-06T13:00:17;153169.19;;;19.25
15453;BMP280;7827;53.594;9.938;2022-07-06T13:02:49;153223.38;;;19.46
15453;BMP280;7827;53.594;9.938;2022-07-06T13:05:37;153292.72;;;19.73
15453;BMP280;7827;53.594;9.938;2022-07-06T13:08:06;153326.81;;;19.87
15453;BMP280;7827;53.594;9.938;2022-07-06T13:10:36;153291.44;;;19.73
15453;BMP280;7827;53.594;9.938;2022-07-06T13:13:08;153228.41;;;19.48
15453;BMP280;7827;53.594;9.938;2022-07-06T13:15:36;153251.13;;;19.57
15453;BMP280;7827;53.594;9.938;2022-07-06T13:18:06;153273.81;;;19.66
15453;BMP280;7827;53.594;9.938;2022-07-06T13:20:40;153227.16;;;19.48
15453;BMP280;7827;53.594;9.938;2022-07-06T13:23:09;153132.63;;;19.10
15453;BMP280;7827;53.594;9.938;2022-07-06T13:25:38;153118.75;;;19.05
15453;BMP280;7827;53.594;9.938;2022-07-06T13:28:06;153155.31;;;19.19
15453;BMP280;7827;53.594;9.938;2022-07-06T13:30:34;153229.69;;;19.49
15453;BMP280;7827;53.594;9.938;2022-07-06T13:33:02;153312.88;;;19.81
15453;BMP280;7827;53.594;9.938;2022-07-06T13:35:32;153372.22;;;20.04
15453;BMP280;7827;53.594;9.938;2022-07-06T13:38:00;153417.59;;;20.22
15453;BMP280;7827;53.594;9.938;2022-07-06T13:40:29;153441.59;;;20.32
15453;BMP280;7827;53.594;9.938;2022-07-06T13:42:58;153449.16;;;20.35
15453;BMP280;7827;53.594;9.938;2022-07-06T13:45:26;153457.97;;;20.38
15453;BMP280;7827;53.594;9.938;2022-07-06T13:47:55;153456.72;;;20.38
15453;BMP280;7827;53.594;9.938;2022-07-06T13:50:23;153465.56;;;20.41
15453;BMP280;7827;53.594;9.938;2022-07-06T13:52:53;153518.53;;;20.62
15453;BMP280;7827;53.594;9.938;2022-07-06T13:55:21;153550.16;;;20.74
15453;BMP280;7827;53.594;9.938;2022-07-06T13:57:50;153542.56;;;20.71
15453;BMP280;7827;53.594;9.938;2022-07-06T14:00:18;153519.78;;;20.62
15453;BMP280;7827;53.594;9.938;2022-07-06T14:02:47;153510.97;;;20.59
15453;BMP280;7827;53.594;9.938;2022-07-06T14:05:15;153518.53;;;20.62
15453;BMP280;7827;53.594;9.938;2022-07-06T14:07:45;153499.59;;;20.54
15453;BMP280;7827;53.594;9.938;2022-07-06T14:10:15;153533.72;;;20.68
15453;BMP280;7827;53.594;9.938;2022-07-06T14:12:44;153548.84;;;20.74
15453;BMP280;7827;53.594;9.938;2022-07-06T14:15:12;153528.63;;;20.66
15453;BMP280;7827;53.594;9.938;2022-07-06T14:17:40;153529.88;;;20.66
15453;BMP280;7827;53.594;9.938;2022-07-06T14:20:10;153536.25;;;20.69
15453;BMP280;7827;53.594;9.938;2022-07-06T14:22:39;153533.72;;;20.68
15453;BMP280;7827;53.594;9.938;2022-07-06T14:25:08;153543.81;;;20.72
15453;BMP280;7827;53.594;9.938;2022-07-06T14:27:38;153540.03;;;20.70